Hustontown, Pennsylvania
Current Conditions -  °F | °C
As of 3:53 AM on Wednesday 22 Oct 2014 (Local Time) from KAOO Reporting Station
Overcast Overcast  
Wind Chill: 45°   Ceiling: 9000
Heat Index: 49°   Visibility: 10mi
Dew Point: 46°   Wind: 10mph
Humidity: 90%   Direction: 10°N
Pressure: 29.96"   Gusts: NA
Location:  40.05°N, 78.03°W
Report Text: KAOO 220753Z AUTO 01009KT 10SM FEW023 SCT047 OVC090 09/08 A2996 RMK AO2 SLP146 T00940078
Loading
Personal Weather Stations






























Interactive Weather Map
Tropical Storm Tracking
New forecast layout! Learn more

10-Day Weather Forecast

Advertisements
Track Severe Weather on mobile